Time;durP1;ratioP1;P1;durP2;ratioP2;P2;SDS_P1;SDS_P2;PMS_P1;PMS_P2;Temp;Humidity;BMP_temperature;BMP_pressure;BME280_temperature;BME280_humidity;BME280_pressure;Samples;Min_cycle;Max_cycle;Signal;HPM_P1;HPM_P2
2022/08/19 00:01:42;;;;;;;18.55;13.20;;;21.20;99.90;;;;;;5068354;28;20609;-54
2022/08/19 00:04:11;;;;;;;17.42;13.93;;;21.20;99.90;;;;;;5068658;28;20029;-54
2022/08/19 00:06:38;;;;;;;15.60;12.10;;;21.10;99.90;;;;;;5068690;28;20020;-54
2022/08/19 00:09:06;;;;;;;15.85;12.40;;;21.10;99.90;;;;;;5068950;28;20025;-54
2022/08/19 00:11:34;;;;;;;17.75;13.10;;;21.10;99.90;;;;;;5067836;28;20476;-54
2022/08/19 00:14:00;;;;;;;20.02;12.93;;;21.10;99.90;;;;;;5068713;28;20020;-54
2022/08/19 00:16:25;;;;;;;21.15;14.05;;;21.00;99.90;;;;;;5068754;28;20408;-53
2022/08/19 00:18:51;;;;;;;15.88;12.73;;;21.10;99.90;;;;;;5068615;28;20023;-54
2022/08/19 00:21:17;;;;;;;20.85;13.13;;;21.00;99.90;;;;;;5068359;28;20422;-55
2022/08/19 00:23:43;;;;;;;26.95;14.07;;;21.00;99.90;;;;;;5074555;28;20606;-55
2022/08/19 00:26:10;;;;;;;20.10;14.13;;;21.00;99.90;;;;;;5075785;28;20235;-54
2022/08/19 00:28:36;;;;;;;17.02;13.38;;;21.00;99.90;;;;;;5072257;28;20035;-54
2022/08/19 00:31:06;;;;;;;21.83;14.68;;;20.90;99.90;;;;;;5083386;28;20020;-54
2022/08/19 00:33:32;;;;;;;18.98;14.38;;;20.90;99.90;;;;;;5079788;28;20020;-55
2022/08/19 00:36:04;;;;;;;17.30;12.88;;;20.90;99.90;;;;;;5088549;28;20089;-55
2022/08/19 00:38:29;;;;;;;20.15;14.00;;;20.80;99.90;;;;;;5088830;28;20048;-54
2022/08/19 00:40:55;;;;;;;24.00;14.80;;;20.80;99.90;;;;;;5088109;28;20498;-54
2022/08/19 00:43:23;;;;;;;19.40;14.25;;;20.80;99.90;;;;;;5088863;28;20024;-54
2022/08/19 00:45:49;;;;;;;17.45;12.73;;;20.80;99.90;;;;;;5088495;28;20016;-54
2022/08/19 00:48:16;;;;;;;18.35;13.60;;;20.80;99.90;;;;;;5091703;28;20062;-54
2022/08/19 00:50:42;;;;;;;22.33;12.30;;;20.80;99.90;;;;;;5084224;28;20051;-54
2022/08/19 00:53:10;;;;;;;21.90;13.45;;;20.80;99.90;;;;;;5084114;28;20142;-54
2022/08/19 00:55:38;;;;;;;19.98;14.48;;;20.80;99.90;;;;;;5074441;28;20440;-54
2022/08/19 00:58:09;;;;;;;18.25;13.57;;;20.80;99.90;;;;;;5092328;28;20475;-54
2022/08/19 01:00:37;;;;;;;26.60;13.88;;;20.70;99.90;;;;;;5091911;28;20048;-54
2022/08/19 01:03:05;;;;;;;21.02;15.18;;;20.70;99.90;;;;;;5090629;28;20099;-54
2022/08/19 01:05:31;;;;;;;17.20;12.48;;;20.70;99.90;;;;;;5092716;28;20047;-54
2022/08/19 01:08:00;;;;;;;19.83;12.77;;;20.70;99.90;;;;;;5092488;28;20059;-54
2022/08/19 01:10:28;;;;;;;17.73;12.63;;;20.60;99.90;;;;;;5092730;28;20036;-54
2022/08/19 01:12:55;;;;;;;20.17;14.48;;;20.60;99.90;;;;;;5091586;28;20086;-54
2022/08/19 01:15:26;;;;;;;15.88;12.32;;;20.60;99.90;;;;;;5092532;28;20020;-54
2022/08/19 01:17:53;;;;;;;18.52;13.40;;;20.60;99.90;;;;;;5091509;28;20024;-54
2022/08/19 01:20:21;;;;;;;23.05;14.15;;;20.60;99.90;;;;;;5086099;28;20043;-54
2022/08/19 01:22:50;;;;;;;21.10;13.70;;;20.60;99.90;;;;;;5079665;28;20036;-54
2022/08/19 01:25:18;;;;;;;14.48;12.57;;;20.60;99.90;;;;;;5071964;28;20395;-54
2022/08/19 01:27:47;;;;;;;17.52;14.13;;;20.60;99.90;;;;;;5075806;28;20020;-53
2022/08/19 01:30:18;;;;;;;19.55;14.27;;;20.60;99.90;;;;;;5083365;28;20107;-55
2022/08/19 01:32:43;;;;;;;17.30;13.20;;;20.50;99.90;;;;;;5087341;28;20032;-54
2022/08/19 01:35:11;;;;;;;20.17;13.98;;;20.50;99.90;;;;;;5079562;28;20394;-54
2022/08/19 01:37:45;;;;;;;25.98;15.20;;;20.50;99.90;;;;;;5051886;28;20033;-54
2022/08/19 01:40:12;;;;;;;20.67;14.27;;;20.40;99.90;;;;;;5051431;28;20025;-54
2022/08/19 01:42:38;;;;;;;20.23;13.77;;;20.40;99.90;;;;;;5050732;28;20288;-53
2022/08/19 01:45:05;;;;;;;23.25;14.38;;;20.40;99.90;;;;;;5051305;28;20083;-54
2022/08/19 01:47:31;;;;;;;18.08;12.32;;;20.40;99.90;;;;;;5050085;28;20070;-54
2022/08/19 01:49:58;;;;;;;22.58;15.18;;;20.40;99.90;;;;;;5050945;28;20036;-54
2022/08/19 01:52:23;;;;;;;20.45;15.07;;;20.40;99.90;;;;;;5050881;28;20033;-54
2022/08/19 01:54:49;;;;;;;17.95;12.75;;;20.30;99.90;;;;;;5051145;28;20495;-54
2022/08/19 01:57:15;;;;;;;17.55;13.52;;;20.30;99.90;;;;;;5051676;28;20033;-54
2022/08/19 01:59:43;;;;;;;20.05;13.75;;;20.40;99.90;;;;;;5050600;28;20092;-54
2022/08/19 02:02:08;;;;;;;16.70;12.15;;;20.30;99.90;;;;;;5050630;28;20416;-54
2022/08/19 02:04:34;;;;;;;16.40;12.68;;;20.30;99.90;;;;;;5077109;28;20107;-54
2022/08/19 02:07:01;;;;;;;16.80;12.73;;;20.30;99.90;;;;;;5086342;28;20472;-54
2022/08/19 02:09:26;;;;;;;17.67;12.50;;;20.20;99.90;;;;;;5091148;28;20054;-54
2022/08/19 02:11:53;;;;;;;16.48;12.75;;;20.20;99.90;;;;;;5089182;28;20032;-55
2022/08/19 02:14:18;;;;;;;13.90;12.10;;;20.20;99.90;;;;;;5091116;28;20027;-55
2022/08/19 02:16:44;;;;;;;14.57;11.93;;;20.20;99.90;;;;;;5090799;28;20036;-54
2022/08/19 02:19:10;;;;;;;20.33;14.27;;;20.10;99.90;;;;;;5090805;28;20035;-55
2022/08/19 02:21:36;;;;;;;19.33;12.75;;;20.10;99.90;;;;;;5080895;28;20021;-55
2022/08/19 02:24:02;;;;;;;15.52;12.57;;;20.10;99.90;;;;;;5086103;28;20102;-54
2022/08/19 02:26:27;;;;;;;14.43;11.57;;;20.10;99.90;;;;;;5090858;28;20035;-54
2022/08/19 02:28:54;;;;;;;19.10;13.93;;;20.00;99.90;;;;;;5079843;28;20024;-54
2022/08/19 02:31:22;;;;;;;21.70;12.45;;;20.00;99.90;;;;;;5088275;28;20421;-54
2022/08/19 02:33:48;;;;;;;15.55;12.75;;;20.00;99.90;;;;;;5090952;28;20024;-54
2022/08/19 02:36:15;;;;;;;17.77;12.25;;;19.90;99.90;;;;;;5073062;28;20027;-55
2022/08/19 02:38:41;;;;;;;16.80;11.80;;;19.90;99.90;;;;;;5082767;28;20077;-55
2022/08/19 02:41:12;;;;;;;16.48;13.07;;;19.90;99.90;;;;;;5087948;28;20494;-54
2022/08/19 02:43:40;;;;;;;15.80;12.82;;;19.90;99.90;;;;;;5070298;28;20074;-54
2022/08/19 02:46:24;;;;;;;19.02;13.05;;;19.80;99.90;;;;;;5070420;28;20012;-54
2022/08/19 02:48:51;;;;;;;15.82;12.63;;;19.80;99.90;;;;;;5070013;28;20045;-55
2022/08/19 02:51:30;;;;;;;18.65;12.70;;;19.70;99.90;;;;;;5069268;28;20446;-54
2022/08/19 02:53:56;;;;;;;15.45;13.18;;;19.70;99.90;;;;;;5070085;28;20040;-54
2022/08/19 02:56:23;;;;;;;18.65;13.05;;;19.70;99.90;;;;;;5069983;28;20530;-54
2022/08/19 02:58:49;;;;;;;19.85;13.25;;;19.60;99.90;;;;;;5069517;28;20113;-54
2022/08/19 03:01:32;;;;;;;17.85;13.07;;;19.60;99.90;;;;;;5073792;28;20048;-54
2022/08/19 03:04:00;;;;;;;17.17;13.23;;;19.60;99.90;;;;;;5084630;28;20059;-53
2022/08/19 03:06:26;;;;;;;18.33;13.20;;;19.60;99.90;;;;;;5089985;28;20021;-54
2022/08/19 03:08:53;;;;;;;18.92;13.65;;;19.60;99.90;;;;;;5090050;28;20032;-54
2022/08/19 03:11:20;;;;;;;17.73;12.85;;;19.50;99.90;;;;;;5088391;28;20099;-54
2022/08/19 03:13:48;;;;;;;17.58;13.02;;;19.50;99.90;;;;;;5089468;28;20030;-54
2022/08/19 03:16:15;;;;;;;13.20;11.80;;;19.50;99.90;;;;;;5089590;28;20441;-54
2022/08/19 03:18:40;;;;;;;15.90;12.13;;;19.50;99.90;;;;;;5089494;28;20115;-54
2022/08/19 03:21:06;;;;;;;16.27;12.57;;;19.50;99.90;;;;;;5085774;28;20395;-55
2022/08/19 03:23:32;;;;;;;15.38;12.43;;;19.50;99.90;;;;;;5078149;28;20163;-54
2022/08/19 03:25:57;;;;;;;15.20;12.55;;;19.40;99.90;;;;;;5069280;28;20247;-54
2022/08/19 03:28:23;;;;;;;18.48;13.27;;;19.40;99.90;;;;;;5069838;28;20495;-55
2022/08/19 03:31:01;;;;;;;16.67;13.10;;;19.40;99.90;;;;;;5072040;28;20108;-55
2022/08/19 03:33:28;;;;;;;17.23;12.80;;;19.40;99.90;;;;;;5065355;28;20075;-54
2022/08/19 03:36:13;;;;;;;18.20;13.07;;;19.40;99.90;;;;;;5067436;28;20020;-54
2022/08/19 03:38:46;;;;;;;17.00;12.32;;;19.40;99.90;;;;;;5087161;28;20054;-54
2022/08/19 03:41:15;;;;;;;18.73;11.98;;;19.40;99.90;;;;;;5071056;28;20420;-54
2022/08/19 03:43:42;;;;;;;16.38;12.02;;;19.40;99.90;;;;;;5068484;28;20042;-53
2022/08/19 03:46:10;;;;;;;17.27;12.20;;;19.30;99.90;;;;;;5069283;28;20025;-53
2022/08/19 03:48:38;;;;;;;13.60;11.05;;;19.30;99.90;;;;;;5067875;28;20454;-53
2022/08/19 03:51:04;;;;;;;21.23;12.40;;;19.30;99.90;;;;;;5067272;28;20033;-54
2022/08/19 03:53:32;;;;;;;16.45;11.85;;;19.30;99.90;;;;;;5067948;28;20032;-53
2022/08/19 03:56:01;;;;;;;16.15;12.82;;;19.20;99.90;;;;;;5068923;28;20116;-53
2022/08/19 03:58:29;;;;;;;12.25;10.95;;;19.20;99.90;;;;;;5068332;28;20024;-53
2022/08/19 04:00:58;;;;;;;14.05;12.07;;;19.20;99.90;;;;;;5082805;28;20027;-53
2022/08/19 04:03:26;;;;;;;16.70;12.10;;;19.20;99.90;;;;;;5068618;28;20033;-53
2022/08/19 04:05:53;;;;;;;16.83;11.85;;;19.10;99.90;;;;;;5069310;28;20029;-53
2022/08/19 04:08:22;;;;;;;18.67;13.02;;;19.10;99.90;;;;;;5066055;28;20225;-53
2022/08/19 04:10:48;;;;;;;16.83;11.25;;;19.10;99.90;;;;;;5068344;28;20991;-53
2022/08/19 04:13:15;;;;;;;17.17;11.77;;;19.10;99.90;;;;;;5068611;28;20052;-53
2022/08/19 04:15:43;;;;;;;14.75;11.32;;;19.10;99.90;;;;;;5068634;28;20494;-55
2022/08/19 04:18:09;;;;;;;17.60;11.85;;;19.10;99.90;;;;;;5065744;28;20732;-53
2022/08/19 04:20:46;;;;;;;15.68;12.02;;;19.10;99.90;;;;;;5067693;28;20077;-53
2022/08/19 04:23:12;;;;;;;16.20;11.57;;;19.10;99.90;;;;;;5082938;28;20027;-53
2022/08/19 04:25:41;;;;;;;15.88;11.13;;;19.00;99.90;;;;;;5095790;28;20103;-53
2022/08/19 04:28:09;;;;;;;17.77;11.07;;;19.00;99.90;;;;;;5095568;28;20051;-55
2022/08/19 04:30:54;;;;;;;17.25;11.40;;;19.00;99.90;;;;;;5088417;28;20530;-53
2022/08/19 04:33:23;;;;;;;20.90;11.20;;;19.00;99.90;;;;;;5087237;28;20067;-53
2022/08/19 04:35:52;;;;;;;15.68;11.35;;;18.90;99.90;;;;;;5095398;28;20445;-53
2022/08/19 04:38:19;;;;;;;20.70;11.25;;;19.00;99.90;;;;;;5093979;28;20035;-53
2022/08/19 04:43:36;;;;;;;17.67;12.55;;;18.90;99.90;;;;;;5073608;28;20046;-53
2022/08/19 04:46:21;;;;;;;14.20;12.13;;;18.90;99.90;;;;;;5074648;28;20028;-53
2022/08/19 04:48:46;;;;;;;18.38;11.25;;;18.80;99.90;;;;;;5072728;28;20078;-53
2022/08/19 04:51:13;;;;;;;17.70;11.75;;;18.80;99.90;;;;;;5066769;28;20453;-53
2022/08/19 04:53:41;;;;;;;14.95;11.23;;;18.80;99.90;;;;;;5087679;28;20036;-55
2022/08/19 04:56:13;;;;;;;13.38;10.05;;;18.80;99.90;;;;;;5089471;28;20028;-53
2022/08/19 04:58:43;;;;;;;15.65;10.35;;;18.80;99.90;;;;;;5089672;28;20483;-53
2022/08/19 05:01:14;;;;;;;16.20;10.77;;;18.80;99.90;;;;;;5095506;28;20020;-53
2022/08/19 05:03:40;;;;;;;15.63;11.20;;;18.80;99.90;;;;;;5088767;28;20060;-53
2022/08/19 05:06:10;;;;;;;17.45;10.32;;;18.80;99.90;;;;;;5091830;28;20048;-55
2022/08/19 05:08:37;;;;;;;15.10;9.68;;;18.70;99.90;;;;;;5094842;28;20063;-53
2022/08/19 05:11:10;;;;;;;14.95;10.32;;;18.70;99.90;;;;;;5094907;28;20444;-53
2022/08/19 05:13:36;;;;;;;13.25;10.65;;;18.80;99.90;;;;;;5093900;28;20024;-53
2022/08/19 05:16:03;;;;;;;15.77;10.02;;;18.70;99.90;;;;;;5075158;28;20029;-53
2022/08/19 05:23:59;;;;;;;13.48;10.80;;;18.60;99.90;;;;;;5087402;28;20441;-53
2022/08/19 05:26:26;;;;;;;13.10;9.77;;;18.60;99.90;;;;;;5089203;28;20013;-54
2022/08/19 05:28:53;;;;;;;12.00;9.73;;;18.60;99.90;;;;;;5086845;28;20027;-53
2022/08/19 05:31:19;;;;;;;18.13;10.52;;;18.60;99.90;;;;;;5092781;28;20501;-53
2022/08/19 05:33:44;;;;;;;15.85;10.68;;;18.60;99.90;;;;;;5087203;28;20035;-53
2022/08/19 05:36:10;;;;;;;17.90;11.35;;;18.60;99.90;;;;;;5091594;28;20032;-54
2022/08/19 05:38:35;;;;;;;14.68;10.15;;;18.60;99.90;;;;;;5082164;28;20039;-54
2022/08/19 05:41:10;;;;;;;14.32;9.75;;;18.60;99.90;;;;;;5082837;28;20016;-54
2022/08/19 05:43:36;;;;;;;17.02;10.40;;;18.70;99.90;;;;;;5090999;28;20112;-53
2022/08/19 05:46:04;;;;;;;13.52;9.88;;;18.60;99.90;;;;;;5075165;28;20048;-53
2022/08/19 05:48:30;;;;;;;13.88;9.98;;;18.60;99.90;;;;;;5090003;28;20061;-53
2022/08/19 05:50:57;;;;;;;14.98;10.15;;;18.70;99.90;;;;;;5086350;28;20031;-53
2022/08/19 05:53:23;;;;;;;13.35;9.45;;;18.70;99.90;;;;;;5082925;28;20024;-53
2022/08/19 05:55:48;;;;;;;13.45;9.52;;;18.70;99.90;;;;;;5089364;28;20085;-54
2022/08/19 05:58:14;;;;;;;14.07;9.07;;;18.80;99.90;;;;;;5083050;28;20028;-54
2022/08/19 06:00:42;;;;;;;16.27;9.77;;;18.90;99.90;;;;;;5091038;28;20095;-54
2022/08/19 06:03:08;;;;;;;12.00;9.32;;;18.90;99.90;;;;;;5080302;28;20028;-54
2022/08/19 06:05:33;;;;;;;14.13;9.70;;;19.00;99.90;;;;;;5071380;28;20564;-56
2022/08/19 06:07:59;;;;;;;21.92;16.70;;;19.00;99.90;;;;;;5071627;28;20028;-53
2022/08/19 06:10:25;;;;;;;14.48;10.30;;;19.10;99.90;;;;;;5080260;28;20035;-54
2022/08/19 06:12:51;;;;;;;14.60;9.32;;;19.10;99.90;;;;;;5068660;28;20404;-54
2022/08/19 06:15:17;;;;;;;11.02;8.65;;;19.20;99.90;;;;;;5070759;28;20039;-55
2022/08/19 06:17:44;;;;;;;15.85;9.38;;;19.30;99.90;;;;;;5076859;28;20601;-55
2022/08/19 06:20:13;;;;;;;15.35;9.38;;;19.30;99.90;;;;;;5086731;28;20486;-54
2022/08/19 06:22:40;;;;;;;11.18;7.82;;;19.30;99.90;;;;;;5085725;28;20110;-54
2022/08/19 06:25:08;;;;;;;13.70;8.88;;;19.40;99.90;;;;;;5073884;28;20112;-58
2022/08/19 06:27:34;;;;;;;15.02;8.98;;;19.30;99.90;;;;;;5053503;28;20023;-53
2022/08/19 06:30:00;;;;;;;16.60;9.80;;;19.30;99.90;;;;;;5072967;28;20479;-55
2022/08/19 06:32:26;;;;;;;16.23;9.20;;;19.40;99.90;;;;;;5086590;28;20429;-54
2022/08/19 06:34:51;;;;;;;10.80;8.35;;;19.30;99.90;;;;;;5083879;28;20045;-55
2022/08/19 06:37:17;;;;;;;14.88;8.65;;;19.40;99.90;;;;;;5078862;28;20029;-55
2022/08/19 06:39:43;;;;;;;11.30;8.75;;;19.30;99.90;;;;;;5089821;28;20028;-54
2022/08/19 06:42:15;;;;;;;12.48;10.00;;;19.30;99.90;;;;;;5087688;28;20553;-54
2022/08/19 06:44:43;;;;;;;13.23;8.90;;;19.30;99.90;;;;;;5089729;28;20028;-55
2022/08/19 06:47:11;;;;;;;17.25;11.30;;;19.30;99.90;;;;;;5089725;28;20024;-54
2022/08/19 06:49:36;;;;;;;11.18;9.85;;;19.30;99.90;;;;;;5089817;28;20024;-53
2022/08/19 06:52:03;;;;;;;16.98;10.13;;;19.30;99.90;;;;;;5089022;28;20038;-54
2022/08/19 06:54:29;;;;;;;15.57;10.63;;;19.30;99.90;;;;;;5088252;28;20026;-54
2022/08/19 06:56:55;;;;;;;18.40;9.77;;;19.20;99.90;;;;;;5088255;28;20035;-54
2022/08/19 06:59:27;;;;;;;15.55;10.85;;;19.20;99.90;;;;;;5089453;28;20047;-54
2022/08/19 07:01:54;;;;;;;18.30;9.35;;;19.10;99.90;;;;;;5083223;28;20584;-55
2022/08/19 07:04:24;;;;;;;16.83;10.25;;;19.10;99.90;;;;;;5081015;28;20137;-55
2022/08/19 07:06:55;;;;;;;15.60;10.63;;;19.10;99.90;;;;;;5089695;28;20136;-55
2022/08/19 07:09:22;;;;;;;14.38;9.77;;;19.00;99.90;;;;;;5088190;28;20384;-55
2022/08/19 07:11:50;;;;;;;15.13;11.15;;;19.10;99.90;;;;;;5088819;28;20045;-54
2022/08/19 07:14:18;;;;;;;14.25;10.95;;;19.10;99.90;;;;;;5089822;28;20073;-54
2022/08/19 07:16:45;;;;;;;14.93;10.13;;;19.10;99.90;;;;;;5086674;28;20090;-54
2022/08/19 07:19:11;;;;;;;16.20;10.75;;;19.10;99.90;;;;;;5087837;28;20107;-54
2022/08/19 07:21:37;;;;;;;16.40;9.63;;;19.10;99.90;;;;;;5088941;28;20452;-55
2022/08/19 07:24:03;;;;;;;12.20;9.95;;;19.00;99.90;;;;;;5088894;28;20483;-55
2022/08/19 07:26:32;;;;;;;14.20;10.95;;;19.00;99.90;;;;;;5082328;28;20348;-55
2022/08/19 07:29:00;;;;;;;14.50;10.98;;;19.00;99.90;;;;;;5062252;28;20128;-55
2022/08/19 07:31:27;;;;;;;17.92;11.00;;;19.00;99.90;;;;;;5066093;28;20012;-55
2022/08/19 07:33:57;;;;;;;15.18;10.02;;;18.90;99.90;;;;;;5075424;28;20487;-55
2022/08/19 07:36:28;;;;;;;16.98;11.68;;;18.90;99.90;;;;;;5064593;28;20447;-55
2022/08/19 07:38:54;;;;;;;13.05;10.80;;;18.90;99.90;;;;;;5079868;28;20059;-54
2022/08/19 07:41:23;;;;;;;16.13;11.48;;;18.90;99.90;;;;;;5087024;28;20066;-55
2022/08/19 07:43:49;;;;;;;15.35;10.40;;;18.80;99.90;;;;;;5081807;28;21429;-54
2022/08/19 07:46:16;;;;;;;16.77;11.57;;;18.70;99.90;;;;;;5084231;28;20385;-55
2022/08/19 07:48:45;;;;;;;13.45;10.25;;;18.80;99.90;;;;;;5088796;28;20028;-54
2022/08/19 07:51:11;;;;;;;13.82;10.75;;;18.70;99.90;;;;;;5088394;28;20028;-54
2022/08/19 07:53:37;;;;;;;12.27;10.15;;;18.70;99.90;;;;;;5088770;28;20036;-54
2022/08/19 07:56:04;;;;;;;15.50;11.18;;;18.70;99.90;;;;;;5086755;28;20024;-54
2022/08/19 07:58:32;;;;;;;12.35;9.70;;;18.70;99.90;;;;;;5088477;28;20016;-54
2022/08/19 08:00:58;;;;;;;16.23;11.15;;;18.70;99.90;;;;;;5088304;28;20443;-54
2022/08/19 08:09:10;;;;;;;19.15;12.15;;;18.60;99.90;;;;;;5087586;28;20024;-55
2022/08/19 08:09:12;;;;;;;17.38;11.45;;;18.60;99.90;;;;;;5089094;28;20449;-55
2022/08/19 08:11:49;;;;;;;15.30;11.75;;;18.60;99.90;;;;;;5086670;28;20182;-53
2022/08/19 08:14:22;;;;;;;16.20;11.82;;;18.60;99.90;;;;;;5079374;28;20328;-55
2022/08/19 08:16:49;;;;;;;19.52;12.18;;;18.60;99.90;;;;;;5085978;28;20115;-54
2022/08/19 08:19:16;;;;;;;15.10;11.23;;;18.60;99.90;;;;;;5078199;28;20143;-55
2022/08/19 08:21:42;;;;;;;15.73;12.02;;;18.60;99.90;;;;;;5089214;28;20105;-54
2022/08/19 08:24:08;;;;;;;21.50;12.95;;;18.60;99.90;;;;;;5082899;28;20028;-54
2022/08/19 08:26:34;;;;;;;18.58;13.40;;;18.60;99.90;;;;;;5081008;28;20020;-52
2022/08/19 08:28:59;;;;;;;15.77;12.10;;;18.50;99.90;;;;;;5068917;28;20040;-54
2022/08/19 08:31:25;;;;;;;14.45;11.95;;;18.50;99.90;;;;;;5066589;28;20103;-54
2022/08/19 08:33:50;;;;;;;16.23;12.57;;;18.50;99.90;;;;;;5080878;28;20475;-55
2022/08/19 08:36:16;;;;;;;17.98;13.82;;;18.50;99.90;;;;;;5090049;28;20043;-54
2022/08/19 08:38:46;;;;;;;18.30;13.68;;;18.40;99.90;;;;;;5088461;28;20035;-55
2022/08/19 08:41:30;;;;;;;16.80;13.00;;;18.40;99.90;;;;;;5077845;28;20019;-55
2022/08/19 08:43:56;;;;;;;20.15;14.85;;;18.40;99.90;;;;;;5089672;28;20057;-55
2022/08/19 08:46:38;;;;;;;19.50;12.50;;;18.40;99.90;;;;;;5076937;28;20024;-55
2022/08/19 08:49:40;;;;;;;16.98;13.25;;;18.40;99.90;;;;;;5066892;28;20028;-55
2022/08/19 08:52:30;;;;;;;16.30;13.50;;;18.40;99.90;;;;;;5075786;28;20036;-55
2022/08/19 08:54:59;;;;;;;18.67;13.13;;;18.50;99.90;;;;;;5047773;28;20033;-55
2022/08/19 08:57:36;;;;;;;15.85;13.05;;;18.50;99.90;;;;;;5077085;28;20036;-59
2022/08/19 09:00:09;;;;;;;16.80;13.13;;;18.50;99.90;;;;;;5088365;28;20028;-55
2022/08/19 09:02:35;;;;;;;18.63;14.10;;;18.50;99.90;;;;;;5077509;28;20115;-56
2022/08/19 09:05:01;;;;;;;18.63;13.32;;;18.50;99.90;;;;;;5083288;28;20112;-56
2022/08/19 09:07:42;;;;;;;19.15;13.32;;;18.50;99.90;;;;;;5083994;28;20059;-55
2022/08/19 09:10:32;;;;;;;18.25;13.70;;;18.50;99.90;;;;;;5087108;28;20023;-55
2022/08/19 09:13:06;;;;;;;18.27;12.70;;;18.50;99.90;;;;;;5083387;28;20427;-55
2022/08/19 09:15:40;;;;;;;20.27;14.50;;;18.50;99.90;;;;;;5083545;28;20043;-54
2022/08/19 09:18:06;;;;;;;21.63;15.48;;;18.50;99.90;;;;;;5086227;28;20419;-55
2022/08/19 09:20:31;;;;;;;24.85;15.40;;;18.50;99.90;;;;;;5082801;28;20498;-55
2022/08/19 09:22:58;;;;;;;19.75;14.73;;;18.50;99.90;;;;;;5088305;28;20024;-56
2022/08/19 09:25:24;;;;;;;21.80;14.85;;;18.60;99.90;;;;;;5073607;28;20080;-55
2022/08/19 09:27:53;;;;;;;17.08;13.52;;;18.60;99.90;;;;;;5069928;28;20024;-56
2022/08/19 09:30:27;;;;;;;19.50;14.15;;;18.70;99.90;;;;;;5081954;28;20145;-56
2022/08/19 09:32:54;;;;;;;15.95;13.60;;;18.70;99.90;;;;;;5087162;28;20081;-55
2022/08/19 09:35:25;;;;;;;21.15;14.05;;;18.80;99.90;;;;;;5072166;28;20558;-56
2022/08/19 09:37:51;;;;;;;17.48;12.85;;;18.80;99.90;;;;;;5063435;28;20049;-54
2022/08/19 09:40:17;;;;;;;17.40;13.68;;;18.80;99.90;;;;;;5072158;28;20106;-54
2022/08/19 09:42:47;;;;;;;22.02;14.48;;;18.90;99.90;;;;;;5081602;28;20055;-54
2022/08/19 09:45:13;;;;;;;17.52;13.38;;;18.80;99.90;;;;;;5091170;28;20028;-54
2022/08/19 09:47:39;;;;;;;18.42;12.73;;;18.80;99.90;;;;;;5090758;28;20568;-55
2022/08/19 09:50:07;;;;;;;19.58;12.40;;;18.80;99.90;;;;;;5087371;28;20032;-55
2022/08/19 09:52:34;;;;;;;15.68;12.40;;;18.90;99.90;;;;;;5080938;28;20024;-54
2022/08/19 09:55:00;;;;;;;18.95;13.30;;;18.90;99.90;;;;;;5083026;28;20021;-55
2022/08/19 09:57:25;;;;;;;19.30;12.15;;;18.90;99.90;;;;;;5080350;28;20090;-54
2022/08/19 09:59:51;;;;;;;18.05;12.32;;;19.00;99.90;;;;;;5088578;28;20028;-54
2022/08/19 10:02:17;;;;;;;17.80;12.50;;;19.10;99.90;;;;;;5076665;28;20595;-54
2022/08/19 10:07:29;;;;;;;16.17;11.75;;;19.20;99.90;;;;;;5080278;28;20530;-54
2022/08/19 10:09:55;;;;;;;16.10;12.35;;;19.30;99.90;;;;;;5088566;28;20470;-54
2022/08/19 10:12:20;;;;;;;16.17;11.93;;;19.40;99.90;;;;;;5075207;28;20258;-54
2022/08/19 10:14:46;;;;;;;14.15;11.13;;;19.40;99.90;;;;;;5082253;28;20070;-55
2022/08/19 10:17:11;;;;;;;16.45;12.02;;;19.40;99.90;;;;;;5088853;28;20441;-54
2022/08/19 10:19:38;;;;;;;16.48;11.77;;;19.50;99.90;;;;;;5080242;28;20044;-55
2022/08/19 10:22:05;;;;;;;16.73;12.50;;;19.50;99.90;;;;;;5079080;28;20024;-54
2022/08/19 10:24:31;;;;;;;15.75;12.80;;;19.60;99.90;;;;;;5084729;28;20032;-54
2022/08/19 10:26:56;;;;;;;17.83;12.63;;;19.70;99.90;;;;;;5081318;28;20024;-55
2022/08/19 10:29:22;;;;;;;23.35;18.75;;;19.80;99.90;;;;;;5088333;28;20542;-54
2022/08/19 10:31:48;;;;;;;15.10;11.50;;;20.00;99.90;;;;;;5081448;28;20090;-54
2022/08/19 10:34:13;;;;;;;13.88;11.63;;;20.10;99.90;;;;;;5085036;28;20059;-54
2022/08/19 10:36:39;;;;;;;14.40;9.88;;;20.20;99.90;;;;;;5081962;28;20028;-55
2022/08/19 10:39:07;;;;;;;12.02;9.35;;;20.20;99.90;;;;;;5067105;28;20043;-55
2022/08/19 10:41:35;;;;;;;11.82;9.30;;;20.30;99.90;;;;;;5047752;28;20099;-55
2022/08/19 10:44:06;;;;;;;11.00;9.20;;;20.40;99.90;;;;;;5072079;28;20021;-55
2022/08/19 10:46:33;;;;;;;13.20;9.20;;;20.40;99.90;;;;;;5088602;28;20024;-55
2022/08/19 10:49:01;;;;;;;10.43;9.20;;;20.40;99.90;;;;;;5079183;28;20341;-55
2022/08/19 10:54:11;;;;;;;11.45;8.75;;;20.40;99.90;;;;;;5080950;28;20112;-56
2022/08/19 10:56:51;;;;;;;11.88;8.23;;;20.40;99.90;;;;;;5081458;28;20107;-56
2022/08/19 10:59:27;;;;;;;13.15;9.23;;;20.40;99.90;;;;;;5081530;28;20110;-55
2022/08/19 11:01:54;;;;;;;12.15;8.57;;;20.60;99.90;;;;;;5083424;28;20027;-54
2022/08/19 11:04:22;;;;;;;10.90;8.45;;;20.60;99.90;;;;;;5078393;28;20518;-54
2022/08/19 11:06:49;;;;;;;10.15;9.05;;;20.80;99.90;;;;;;5068999;28;20021;-55
2022/08/19 11:09:25;;;;;;;9.57;7.57;;;20.90;99.90;;;;;;5071038;28;20563;-55
2022/08/19 11:11:53;;;;;;;18.75;8.65;;;21.20;99.90;;;;;;5073765;28;20028;-55
2022/08/19 11:14:20;;;;;;;8.85;7.88;;;21.50;99.90;;;;;;5079183;28;20024;-56
2022/08/19 11:16:50;;;;;;;12.02;8.00;;;21.90;99.90;;;;;;5089066;28;20035;-54
2022/08/19 11:19:18;;;;;;;9.48;7.63;;;22.50;99.90;;;;;;5077108;28;20024;-55
2022/08/19 11:21:47;;;;;;;9.20;7.38;;;22.70;99.90;;;;;;5068153;28;20020;-55
2022/08/19 11:24:15;;;;;;;10.18;6.80;;;23.30;99.90;;;;;;5067362;28;20135;-56
2022/08/19 11:26:43;;;;;;;8.60;6.63;;;23.60;99.90;;;;;;5081201;28;20070;-55
2022/08/19 11:29:12;;;;;;;7.07;6.40;;;24.30;99.90;;;;;;5063925;28;20033;-55
2022/08/19 11:31:39;;;;;;;7.90;6.78;;;24.80;99.90;;;;;;5055768;28;20403;-55
2022/08/19 11:34:08;;;;;;;8.40;7.07;;;25.10;99.90;;;;;;5076147;28;20025;-55
2022/08/19 11:36:37;;;;;;;9.15;6.95;;;26.00;99.90;;;;;;5078219;28;20119;-55
2022/08/19 11:39:04;;;;;;;7.68;6.20;;;26.10;99.90;;;;;;5088498;28;20055;-55
2022/08/19 11:41:30;;;;;;;6.85;5.93;;;26.00;99.90;;;;;;5079032;28;20021;-56
2022/08/19 11:43:56;;;;;;;7.75;5.90;;;25.40;99.90;;;;;;5084354;28;20058;-55
2022/08/19 11:46:24;;;;;;;10.43;6.80;;;25.20;99.90;;;;;;5076447;28;20139;-55
2022/08/19 11:48:50;;;;;;;8.10;6.13;;;24.90;99.90;;;;;;5082155;28;20073;-55
2022/08/19 11:51:19;;;;;;;8.60;7.20;;;24.70;99.90;;;;;;5081683;28;20024;-55
2022/08/19 11:53:45;;;;;;;11.75;6.88;;;24.30;99.90;;;;;;5082290;28;20028;-55
2022/08/19 11:56:10;;;;;;;8.15;6.47;;;24.30;99.90;;;;;;5079910;28;20020;-54
2022/08/19 11:58:37;;;;;;;8.82;6.63;;;24.30;99.90;;;;;;5080644;28;20035;-56
2022/08/19 12:01:07;;;;;;;8.63;7.18;;;24.40;99.90;;;;;;5087516;28;20220;-55
2022/08/19 12:03:33;;;;;;;7.35;6.13;;;24.40;99.90;;;;;;5087831;28;20020;-55
2022/08/19 12:06:07;;;;;;;7.82;7.03;;;24.90;99.90;;;;;;5088982;28;20593;-54
2022/08/19 12:08:32;;;;;;;8.05;6.50;;;25.10;99.90;;;;;;5088926;28;20058;-55
2022/08/19 12:11:00;;;;;;;9.38;6.25;;;24.90;99.90;;;;;;5086718;28;20628;-55
2022/08/19 12:13:26;;;;;;;8.07;6.10;;;24.70;99.90;;;;;;5088844;28;20020;-55
2022/08/19 12:15:52;;;;;;;10.30;6.30;;;24.50;99.90;;;;;;5088860;28;20348;-55
2022/08/19 12:18:18;;;;;;;9.20;6.38;;;24.40;99.90;;;;;;5083165;28;20309;-55
2022/08/19 12:20:45;;;;;;;10.40;7.70;;;24.30;99.90;;;;;;5080928;28;20032;-55
2022/08/19 12:23:11;;;;;;;8.18;6.70;;;24.40;99.90;;;;;;5088698;28;20027;-55
2022/08/19 12:25:37;;;;;;;9.20;7.22;;;24.70;99.90;;;;;;5088448;28;20391;-55
2022/08/19 12:28:03;;;;;;;7.90;6.38;;;24.70;99.90;;;;;;5088732;28;20017;-55
2022/08/19 12:30:29;;;;;;;7.20;6.30;;;24.70;99.90;;;;;;5078189;28;20101;-55
2022/08/19 12:32:54;;;;;;;8.75;6.45;;;24.40;99.90;;;;;;5082960;28;20032;-55
2022/08/19 12:35:20;;;;;;;8.38;6.65;;;24.50;99.90;;;;;;5087691;28;20111;-54
2022/08/19 12:37:46;;;;;;;7.07;6.00;;;24.50;99.90;;;;;;5088867;28;20068;-54
2022/08/19 12:40:12;;;;;;;8.35;6.75;;;24.40;99.90;;;;;;5089146;28;20530;-54
2022/08/19 12:42:42;;;;;;;8.93;7.25;;;24.20;99.90;;;;;;5088561;28;20059;-54
2022/08/19 12:45:10;;;;;;;8.55;6.60;;;24.20;99.90;;;;;;5091299;28;20506;-55
2022/08/19 12:47:35;;;;;;;8.32;7.50;;;24.20;99.90;;;;;;5092922;28;20020;-54
2022/08/19 12:50:02;;;;;;;11.30;6.68;;;24.10;99.90;;;;;;5092838;28;20028;-54
2022/08/19 12:52:28;;;;;;;10.88;6.25;;;24.10;99.90;;;;;;5091076;28;20061;-54